Pagina principale
METAR-TAF:

METAR-TAF

Aeroporti :

Aeroporto di Najran

Najran, Arabia Saudita

latitudine: 17-37N, longitudine: 044-25E, altezza: 1212 m

Osservazione

Il bollettino è stato emesso 29 minuti fa, alle 05:00 UTC
Vento calmo
Temperature 11°C
Umidità 47%
Pressione 1022 hPa
Visibilità 10 km o più
nessuna nube inferiore a 1500 m e nessun cumulonembo

METAR: OENG 290500Z 00000KT CAVOK 11/00 Q1022 NOSIG

Ora: 08:29 (05:29 UTC)

Previsione

Il bollettino è stato emesso 6 ore e 29 minuti fa, alle 23:00 UTC
Previsione valida dal 29 alle 00 UTC al 30 alle 06 UTC
Vento 3 kt da direzioni variabili
Visibilità: 7000 m
Evoluzione graduale
dal 29 alle 06 UTC al 29 alle 08 UTC
Vento 14 kt da sud-est

TAF: OENG 282300Z 2900/3006 VRB03KT 7000 NSC BECMG 2906/2908 13014KT

Osservazioni e previsioni meteorologiche di più di 4000 aeroporti (messaggi METAR e TAF).

Le stazioni disponibili sono rappresentate dai dischi gialli e rossi sulla carta.

Puntare il mouse per vedere il nome della stazione.

Clicca sopra per visualizzare le osservazioni e previsioni meteorologiche.

Per cambiare la mappa : fare clic sui pulsanti verdi con una croce nera per ingrandire, il pulsante verde con un trattino per diminuire, o sulla freccia verde per le mappe adiacenti.


METAR-TAF: